Swansboro, NC

12:22 PM EST on January 17, 2017 (GMT -0500)
Bogue McAlf | | Change Station
Active Advisory: Small Craft Advisory

Elev 20 ft 34.69 °N, 77.03 °W | Updated 1 hour ago

Scattered Clouds
Scattered Clouds
64 °F
Feels Like 64 °F
N
0
Wind Variable Wind from North

Today
High -- | Low -- °F
--% Chance of Precip.
Yesterday
High -- | Low -- °F
Precip. -- in
Pressure 30.27 in
Visibility 10.0 miles
Clouds Scattered Clouds 9000 ft
Dew Point 52 °F
Humidity 65%
Rainfall 0.00 in
Snow Depth Not available.
7:14 AM 5:22 PM
Waning Gibbous, 71% visible
METAR KNJM 171557Z AUTO 00000KT 10SM SCT090 18/11 A3026 RMK AO2 SLP250 T01780111
Pressure 30.27 in
Visibility 10.0 miles
Clouds Scattered Clouds 9000 ft
Dew Point 52 °F
Humidity 65%
Rainfall 0.00 in
Snow Depth Not available.
7:14 AM 5:22 PM
Waning Gibbous, 71% visible
METAR KNJM 171557Z AUTO 00000KT 10SM SCT090 18/11 A3026 RMK AO2 SLP250 T01780111

Get Your Daily Forecast Email!

Thanks for signing up!

Be on the lookout for a verification email in your inbox.

You'll start receiving the daily forecast at 8 AM.

×

10-Day Weather Forecast

Almanac

Astronomy

Jan. 17, 2017 Rise Set
Actual Time
Civil Twilight
Nautical Twilight
Astronomical Twilight
Moon
Length of Visible Light
Length of Day
Tomorrow will be .
, % of the Moon is Illuminated

Today's Extremes

State Highs State Lows

Community

WunderPhotos

Upload Photos

1,962,540 photos uploaded!

WunderBlog® & News

Nearby

Air Quality

  Air Quality AQ Index Pollutant
Not available.

Snow Depth

Station Depth Elevation

Earthquake Activity

City Distance Mag. Time & Date
Minimum magnitude displayed is 2.5.

Coastal Water Temperatures

Place Temperature

Stations

Nearby Weather Stations

Station Location Temp. Windchill Dew Point Humidity Wind Precip. Elev Updated Type
                   

Watches & Warnings

Small Craft Advisory
Issued: 3:20 AM EST Jan. 17, 2017 – National Weather Service

... Small Craft Advisory in effect from 5 am to 5 PM EST
Wednesday...

The National Weather Service in Newport/Morehead City has issued
a Small Craft Advisory... which is in effect from 5 am to 5 PM EST
Wednesday.

* Winds... southwest 15 to 25 kt with gusts up to 30 kt.

* Seas... 4 to 6 feet.

Precautionary/preparedness actions...

A Small Craft Advisory means that wind speeds of 25 to 33 knots
and/or seas of 6 feet or greater are expected to produce
hazardous wave conditions to small craft. Inexperienced
mariners... especially those operating smaller vessels should
avoid navigating in these conditions.